Terminal Aerodrome Forecast
Issued by NWS Sterling, VA

Home | Current Version | Previous Version | Text Only | Print | Product List | Glossary On
Versions: 1 2 3 4 5 6 7 8 9 10 11 12 13 14 15 16 17 18 19 20 21 22
000
FTUS41 KLWX 161700
TAFDCA
TAF
KDCA 161720Z 1618/1718 33008G16KT P6SM SCT050
     FM162200 34005KT P6SM FEW050
     FM171400 06004KT P6SM SCT050
     FM171700 14004KT P6SM SCT050=

USA.gov is the U.S. government's official web portal to all federal, state and local government web resources and services.